sensor_id;sensor_type;location;lat;lon;timestamp;P1;durP1;ratioP1;P2;durP2;ratioP2
59766;SDS011;46248;58.364;25.582;2023-06-10T00:00:07;1.05;;;0.70;;
59766;SDS011;46248;58.364;25.582;2023-06-10T00:03:33;1.35;;;0.60;;
59766;SDS011;46248;58.364;25.582;2023-06-10T00:06:57;0.85;;;0.80;;
59766;SDS011;46248;58.364;25.582;2023-06-10T00:10:21;0.65;;;0.60;;
59766;SDS011;46248;58.364;25.582;2023-06-10T00:13:44;4.50;;;1.85;;
59766;SDS011;46248;58.364;25.582;2023-06-10T00:17:07;1.48;;;1.10;;
59766;SDS011;46248;58.364;25.582;2023-06-10T00:20:31;1.05;;;0.68;;
59766;SDS011;46248;58.364;25.582;2023-06-10T00:23:57;1.33;;;0.80;;
59766;SDS011;46248;58.364;25.582;2023-06-10T00:27:25;1.73;;;0.68;;
59766;SDS011;46248;58.364;25.582;2023-06-10T00:30:52;0.57;;;0.50;;
59766;SDS011;46248;58.364;25.582;2023-06-10T00:34:15;1.05;;;0.73;;
59766;SDS011;46248;58.364;25.582;2023-06-10T00:37:38;0.75;;;0.70;;
59766;SDS011;46248;58.364;25.582;2023-06-10T00:41:01;2.08;;;0.80;;
59766;SDS011;46248;58.364;25.582;2023-06-10T00:44:26;1.70;;;1.35;;
59766;SDS011;46248;58.364;25.582;2023-06-10T00:47:48;0.60;;;0.60;;
59766;SDS011;46248;58.364;25.582;2023-06-10T00:51:11;1.10;;;0.60;;
59766;SDS011;46248;58.364;25.582;2023-06-10T00:54:34;1.15;;;0.77;;
59766;SDS011;46248;58.364;25.582;2023-06-10T00:57:57;0.98;;;0.90;;
59766;SDS011;46248;58.364;25.582;2023-06-10T01:01:22;0.75;;;0.68;;
59766;SDS011;46248;58.364;25.582;2023-06-10T01:04:46;1.23;;;0.80;;
59766;SDS011;46248;58.364;25.582;2023-06-10T01:08:12;2.08;;;0.50;;
59766;SDS011;46248;58.364;25.582;2023-06-10T01:11:43;0.98;;;0.80;;
59766;SDS011;46248;58.364;25.582;2023-06-10T01:15:10;0.82;;;0.82;;
59766;SDS011;46248;58.364;25.582;2023-06-10T01:18:35;1.23;;;0.70;;
59766;SDS011;46248;58.364;25.582;2023-06-10T01:22:00;1.00;;;0.65;;
59766;SDS011;46248;58.364;25.582;2023-06-10T01:25:24;0.95;;;0.90;;
59766;SDS011;46248;58.364;25.582;2023-06-10T01:28:51;0.65;;;0.65;;
59766;SDS011;46248;58.364;25.582;2023-06-10T01:32:21;1.10;;;0.70;;
59766;SDS011;46248;58.364;25.582;2023-06-10T01:35:49;0.90;;;0.60;;
59766;SDS011;46248;58.364;25.582;2023-06-10T01:39:14;1.00;;;0.82;;
59766;SDS011;46248;58.364;25.582;2023-06-10T01:42:38;1.65;;;1.50;;
59766;SDS011;46248;58.364;25.582;2023-06-10T01:46:02;0.80;;;0.70;;
59766;SDS011;46248;58.364;25.582;2023-06-10T01:49:24;0.95;;;0.60;;
59766;SDS011;46248;58.364;25.582;2023-06-10T01:52:49;1.23;;;0.50;;
59766;SDS011;46248;58.364;25.582;2023-06-10T01:56:13;0.60;;;0.50;;
59766;SDS011;46248;58.364;25.582;2023-06-10T01:59:39;0.68;;;0.50;;
59766;SDS011;46248;58.364;25.582;2023-06-10T02:03:05;0.80;;;0.80;;
59766;SDS011;46248;58.364;25.582;2023-06-10T02:06:28;0.90;;;0.88;;
59766;SDS011;46248;58.364;25.582;2023-06-10T02:09:51;2.67;;;1.40;;
59766;SDS011;46248;58.364;25.582;2023-06-10T02:13:16;1.55;;;1.00;;
59766;SDS011;46248;58.364;25.582;2023-06-10T02:16:39;1.10;;;0.90;;
59766;SDS011;46248;58.364;25.582;2023-06-10T02:20:02;0.93;;;0.60;;
59766;SDS011;46248;58.364;25.582;2023-06-10T02:23:27;0.73;;;0.73;;
59766;SDS011;46248;58.364;25.582;2023-06-10T02:26:50;0.93;;;0.70;;
59766;SDS011;46248;58.364;25.582;2023-06-10T02:30:15;0.70;;;0.70;;
59766;SDS011;46248;58.364;25.582;2023-06-10T02:33:38;0.70;;;0.70;;
59766;SDS011;46248;58.364;25.582;2023-06-10T02:37:02;8.90;;;3.60;;
59766;SDS011;46248;58.364;25.582;2023-06-10T02:40:26;1.25;;;1.00;;
59766;SDS011;46248;58.364;25.582;2023-06-10T02:43:48;1.25;;;0.75;;
59766;SDS011;46248;58.364;25.582;2023-06-10T02:47:13;1.30;;;0.50;;
59766;SDS011;46248;58.364;25.582;2023-06-10T02:50:36;2.55;;;0.75;;
59766;SDS011;46248;58.364;25.582;2023-06-10T02:54:00;1.08;;;0.75;;
59766;SDS011;46248;58.364;25.582;2023-06-10T02:57:24;0.82;;;0.75;;
59766;SDS011;46248;58.364;25.582;2023-06-10T03:00:46;4.38;;;2.35;;
59766;SDS011;46248;58.364;25.582;2023-06-10T03:04:11;0.88;;;0.85;;
59766;SDS011;46248;58.364;25.582;2023-06-10T03:07:35;1.90;;;0.80;;
59766;SDS011;46248;58.364;25.582;2023-06-10T03:10:58;0.60;;;0.60;;
59766;SDS011;46248;58.364;25.582;2023-06-10T03:14:21;0.65;;;0.63;;
59766;SDS011;46248;58.364;25.582;2023-06-10T03:17:45;1.67;;;0.50;;
59766;SDS011;46248;58.364;25.582;2023-06-10T03:21:09;0.98;;;0.52;;
59766;SDS011;46248;58.364;25.582;2023-06-10T03:24:32;1.70;;;0.60;;
59766;SDS011;46248;58.364;25.582;2023-06-10T03:27:56;0.40;;;0.40;;
59766;SDS011;46248;58.364;25.582;2023-06-10T03:31:19;1.13;;;0.60;;
59766;SDS011;46248;58.364;25.582;2023-06-10T03:34:42;1.17;;;0.50;;
59766;SDS011;46248;58.364;25.582;2023-06-10T03:38:10;0.40;;;0.30;;
59766;SDS011;46248;58.364;25.582;2023-06-10T03:41:32;1.05;;;1.05;;
59766;SDS011;46248;58.364;25.582;2023-06-10T03:44:55;1.80;;;0.40;;
59766;SDS011;46248;58.364;25.582;2023-06-10T03:48:18;2.00;;;0.95;;
59766;SDS011;46248;58.364;25.582;2023-06-10T03:51:41;0.65;;;0.47;;
59766;SDS011;46248;58.364;25.582;2023-06-10T03:55:06;0.90;;;0.80;;
59766;SDS011;46248;58.364;25.582;2023-06-10T03:58:32;0.90;;;0.55;;
59766;SDS011;46248;58.364;25.582;2023-06-10T04:01:55;0.70;;;0.70;;
59766;SDS011;46248;58.364;25.582;2023-06-10T04:05:18;0.50;;;0.50;;
59766;SDS011;46248;58.364;25.582;2023-06-10T04:08:43;1.13;;;0.60;;
59766;SDS011;46248;58.364;25.582;2023-06-10T04:12:08;1.25;;;0.60;;
59766;SDS011;46248;58.364;25.582;2023-06-10T04:15:31;0.60;;;0.60;;
59766;SDS011;46248;58.364;25.582;2023-06-10T04:18:54;0.70;;;0.55;;
59766;SDS011;46248;58.364;25.582;2023-06-10T04:22:18;0.82;;;0.80;;
59766;SDS011;46248;58.364;25.582;2023-06-10T04:25:41;0.50;;;0.45;;
59766;SDS011;46248;58.364;25.582;2023-06-10T04:29:05;0.82;;;0.60;;
59766;SDS011;46248;58.364;25.582;2023-06-10T04:32:28;0.98;;;0.90;;
59766;SDS011;46248;58.364;25.582;2023-06-10T04:35:51;0.98;;;0.93;;
59766;SDS011;46248;58.364;25.582;2023-06-10T04:39:13;1.60;;;0.80;;
59766;SDS011;46248;58.364;25.582;2023-06-10T04:42:37;0.88;;;0.70;;
59766;SDS011;46248;58.364;25.582;2023-06-10T04:46:02;0.65;;;0.65;;
59766;SDS011;46248;58.364;25.582;2023-06-10T04:49:28;0.80;;;0.77;;
59766;SDS011;46248;58.364;25.582;2023-06-10T04:52:50;1.00;;;0.73;;
59766;SDS011;46248;58.364;25.582;2023-06-10T04:56:13;0.77;;;0.77;;
59766;SDS011;46248;58.364;25.582;2023-06-10T04:59:37;1.80;;;1.17;;
59766;SDS011;46248;58.364;25.582;2023-06-10T05:03:01;1.15;;;0.90;;
59766;SDS011;46248;58.364;25.582;2023-06-10T05:06:24;2.00;;;0.88;;
59766;SDS011;46248;58.364;25.582;2023-06-10T05:09:47;0.60;;;0.60;;
59766;SDS011;46248;58.364;25.582;2023-06-10T05:13:09;1.88;;;0.52;;
59766;SDS011;46248;58.364;25.582;2023-06-10T05:16:33;0.70;;;0.70;;
59766;SDS011;46248;58.364;25.582;2023-06-10T05:19:58;1.40;;;0.50;;
59766;SDS011;46248;58.364;25.582;2023-06-10T05:23:21;1.25;;;0.50;;
59766;SDS011;46248;58.364;25.582;2023-06-10T05:26:43;1.00;;;0.50;;
59766;SDS011;46248;58.364;25.582;2023-06-10T05:30:07;0.73;;;0.57;;
59766;SDS011;46248;58.364;25.582;2023-06-10T05:33:32;0.70;;;0.60;;
59766;SDS011;46248;58.364;25.582;2023-06-10T05:36:56;0.50;;;0.47;;
59766;SDS011;46248;58.364;25.582;2023-06-10T05:40:19;1.42;;;0.70;;
59766;SDS011;46248;58.364;25.582;2023-06-10T05:43:42;0.50;;;0.50;;
59766;SDS011;46248;58.364;25.582;2023-06-10T05:47:04;1.42;;;0.50;;
59766;SDS011;46248;58.364;25.582;2023-06-10T05:50:27;2.38;;;1.10;;
59766;SDS011;46248;58.364;25.582;2023-06-10T05:53:52;0.70;;;0.70;;
59766;SDS011;46248;58.364;25.582;2023-06-10T05:57:15;0.50;;;0.50;;
59766;SDS011;46248;58.364;25.582;2023-06-10T06:00:38;0.80;;;0.63;;
59766;SDS011;46248;58.364;25.582;2023-06-10T06:04:01;0.57;;;0.57;;
59766;SDS011;46248;58.364;25.582;2023-06-10T06:07:24;0.88;;;0.40;;
59766;SDS011;46248;58.364;25.582;2023-06-10T06:15:35;0.30;;;0.30;;
59766;SDS011;46248;58.364;25.582;2023-06-10T06:18:58;0.55;;;0.55;;
59766;SDS011;46248;58.364;25.582;2023-06-10T06:22:21;0.30;;;0.30;;
59766;SDS011;46248;58.364;25.582;2023-06-10T06:25:44;0.30;;;0.30;;
59766;SDS011;46248;58.364;25.582;2023-06-10T06:29:07;0.98;;;0.20;;
59766;SDS011;46248;58.364;25.582;2023-06-10T06:32:32;0.43;;;0.35;;
59766;SDS011;46248;58.364;25.582;2023-06-10T06:35:55;0.30;;;0.30;;
59766;SDS011;46248;58.364;25.582;2023-06-10T06:39:18;0.65;;;0.32;;
59766;SDS011;46248;58.364;25.582;2023-06-10T06:42:41;0.50;;;0.50;;
59766;SDS011;46248;58.364;25.582;2023-06-10T06:46:04;0.40;;;0.40;;
59766;SDS011;46248;58.364;25.582;2023-06-10T06:49:29;2.28;;;0.60;;
59766;SDS011;46248;58.364;25.582;2023-06-10T06:52:52;0.40;;;0.40;;
59766;SDS011;46248;58.364;25.582;2023-06-10T06:56:16;1.08;;;0.35;;
59766;SDS011;46248;58.364;25.582;2023-06-10T06:59:39;0.55;;;0.30;;
59766;SDS011;46248;58.364;25.582;2023-06-10T07:03:02;0.60;;;0.60;;
59766;SDS011;46248;58.364;25.582;2023-06-10T07:06:27;3.25;;;0.60;;
59766;SDS011;46248;58.364;25.582;2023-06-10T07:09:51;0.57;;;0.57;;
59766;SDS011;46248;58.364;25.582;2023-06-10T07:13:14;0.40;;;0.40;;
59766;SDS011;46248;58.364;25.582;2023-06-10T07:16:37;2.83;;;0.70;;
59766;SDS011;46248;58.364;25.582;2023-06-10T07:20:00;1.25;;;0.30;;
59766;SDS011;46248;58.364;25.582;2023-06-10T07:23:24;0.85;;;0.50;;
59766;SDS011;46248;58.364;25.582;2023-06-10T07:26:47;1.25;;;1.15;;
59766;SDS011;46248;58.364;25.582;2023-06-10T07:30:11;0.85;;;0.50;;
59766;SDS011;46248;58.364;25.582;2023-06-10T07:33:34;0.55;;;0.50;;
59766;SDS011;46248;58.364;25.582;2023-06-10T07:36:57;0.35;;;0.35;;
59766;SDS011;46248;58.364;25.582;2023-06-10T07:40:22;0.25;;;0.25;;
59766;SDS011;46248;58.364;25.582;2023-06-10T07:43:46;1.30;;;0.50;;
59766;SDS011;46248;58.364;25.582;2023-06-10T07:47:09;0.82;;;0.40;;
59766;SDS011;46248;58.364;25.582;2023-06-10T07:50:31;0.38;;;0.38;;
59766;SDS011;46248;58.364;25.582;2023-06-10T07:53:54;1.63;;;0.57;;
59766;SDS011;46248;58.364;25.582;2023-06-10T07:57:19;0.43;;;0.43;;
59766;SDS011;46248;58.364;25.582;2023-06-10T08:00:42;0.52;;;0.50;;
59766;SDS011;46248;58.364;25.582;2023-06-10T08:04:05;0.85;;;0.22;;
59766;SDS011;46248;58.364;25.582;2023-06-10T08:07:28;0.57;;;0.40;;
59766;SDS011;46248;58.364;25.582;2023-06-10T08:10:51;1.42;;;0.52;;
59766;SDS011;46248;58.364;25.582;2023-06-10T08:14:15;0.88;;;0.70;;
59766;SDS011;46248;58.364;25.582;2023-06-10T08:17:38;0.50;;;0.47;;
59766;SDS011;46248;58.364;25.582;2023-06-10T08:21:01;0.75;;;0.60;;
59766;SDS011;46248;58.364;25.582;2023-06-10T08:24:24;1.70;;;0.80;;
59766;SDS011;46248;58.364;25.582;2023-06-10T08:27:47;1.48;;;0.60;;
59766;SDS011;46248;58.364;25.582;2023-06-10T08:31:12;1.70;;;0.60;;
59766;SDS011;46248;58.364;25.582;2023-06-10T08:34:35;3.08;;;0.60;;
59766;SDS011;46248;58.364;25.582;2023-06-10T08:37:59;1.17;;;0.60;;
59766;SDS011;46248;58.364;25.582;2023-06-10T08:41:22;0.40;;;0.40;;
59766;SDS011;46248;58.364;25.582;2023-06-10T08:44:47;0.65;;;0.60;;
59766;SDS011;46248;58.364;25.582;2023-06-10T08:48:15;1.15;;;0.73;;
59766;SDS011;46248;58.364;25.582;2023-06-10T08:51:41;0.98;;;0.63;;
59766;SDS011;46248;58.364;25.582;2023-06-10T08:55:08;5.80;;;0.93;;
59766;SDS011;46248;58.364;25.582;2023-06-10T08:58:34;3.42;;;0.80;;
59766;SDS011;46248;58.364;25.582;2023-06-10T09:02:02;0.70;;;0.60;;
59766;SDS011;46248;58.364;25.582;2023-06-10T09:05:28;0.88;;;0.45;;
59766;SDS011;46248;58.364;25.582;2023-06-10T09:08:57;0.70;;;0.67;;
59766;SDS011;46248;58.364;25.582;2023-06-10T09:12:23;0.80;;;0.50;;
59766;SDS011;46248;58.364;25.582;2023-06-10T09:15:46;1.50;;;1.40;;
59766;SDS011;46248;58.364;25.582;2023-06-10T09:19:09;2.58;;;1.60;;
59766;SDS011;46248;58.364;25.582;2023-06-10T09:22:35;0.73;;;0.73;;
59766;SDS011;46248;58.364;25.582;2023-06-10T09:25:58;3.50;;;0.88;;
59766;SDS011;46248;58.364;25.582;2023-06-10T09:29:21;0.93;;;0.60;;
59766;SDS011;46248;58.364;25.582;2023-06-10T09:32:44;1.00;;;0.43;;
59766;SDS011;46248;58.364;25.582;2023-06-10T09:36:07;0.70;;;0.60;;
59766;SDS011;46248;58.364;25.582;2023-06-10T09:39:31;0.70;;;0.70;;
59766;SDS011;46248;58.364;25.582;2023-06-10T09:42:54;2.55;;;0.80;;
59766;SDS011;46248;58.364;25.582;2023-06-10T09:46:19;2.15;;;0.80;;
59766;SDS011;46248;58.364;25.582;2023-06-10T09:49:42;0.70;;;0.70;;
59766;SDS011;46248;58.364;25.582;2023-06-10T09:53:05;2.25;;;0.82;;
59766;SDS011;46248;58.364;25.582;2023-06-10T09:56:34;0.80;;;0.57;;
59766;SDS011;46248;58.364;25.582;2023-06-10T09:59:57;0.63;;;0.60;;
59766;SDS011;46248;58.364;25.582;2023-06-10T10:03:22;1.23;;;0.70;;
59766;SDS011;46248;58.364;25.582;2023-06-10T10:06:45;0.60;;;0.60;;
59766;SDS011;46248;58.364;25.582;2023-06-10T10:10:08;0.93;;;0.52;;
59766;SDS011;46248;58.364;25.582;2023-06-10T10:13:34;0.60;;;0.60;;
59766;SDS011;46248;58.364;25.582;2023-06-10T10:16:56;0.50;;;0.50;;
59766;SDS011;46248;58.364;25.582;2023-06-10T10:20:24;1.20;;;0.77;;
59766;SDS011;46248;58.364;25.582;2023-06-10T10:23:53;1.90;;;0.70;;
59766;SDS011;46248;58.364;25.582;2023-06-10T10:27:23;1.27;;;0.60;;
59766;SDS011;46248;58.364;25.582;2023-06-10T10:30:51;1.30;;;0.73;;
59766;SDS011;46248;58.364;25.582;2023-06-10T10:34:18;1.27;;;0.57;;
59766;SDS011;46248;58.364;25.582;2023-06-10T10:37:46;1.42;;;0.70;;
59766;SDS011;46248;58.364;25.582;2023-06-10T10:41:10;0.95;;;0.60;;
59766;SDS011;46248;58.364;25.582;2023-06-10T10:44:33;2.08;;;0.65;;
59766;SDS011;46248;58.364;25.582;2023-06-10T10:47:57;1.38;;;0.68;;
59766;SDS011;46248;58.364;25.582;2023-06-10T10:51:26;0.68;;;0.38;;
59766;SDS011;46248;58.364;25.582;2023-06-10T10:54:56;2.20;;;0.60;;
59766;SDS011;46248;58.364;25.582;2023-06-10T10:58:23;1.75;;;0.68;;
59766;SDS011;46248;58.364;25.582;2023-06-10T11:01:47;0.55;;;0.50;;
59766;SDS011;46248;58.364;25.582;2023-06-10T11:05:15;1.25;;;0.50;;
59766;SDS011;46248;58.364;25.582;2023-06-10T11:08:45;3.13;;;1.85;;
59766;SDS011;46248;58.364;25.582;2023-06-10T11:12:09;2.90;;;0.80;;
59766;SDS011;46248;58.364;25.582;2023-06-10T11:15:32;3.22;;;0.80;;
59766;SDS011;46248;58.364;25.582;2023-06-10T11:18:55;1.25;;;0.88;;
59766;SDS011;46248;58.364;25.582;2023-06-10T11:22:19;1.10;;;0.95;;
59766;SDS011;46248;58.364;25.582;2023-06-10T11:25:42;1.92;;;0.77;;
59766;SDS011;46248;58.364;25.582;2023-06-10T11:29:08;0.88;;;0.88;;
59766;SDS011;46248;58.364;25.582;2023-06-10T11:32:32;0.95;;;0.60;;
59766;SDS011;46248;58.364;25.582;2023-06-10T11:35:56;0.60;;;0.60;;
59766;SDS011;46248;58.364;25.582;2023-06-10T11:39:21;1.10;;;0.68;;
59766;SDS011;46248;58.364;25.582;2023-06-10T11:42:47;0.32;;;0.32;;
59766;SDS011;46248;58.364;25.582;2023-06-10T11:46:10;0.85;;;0.60;;
59766;SDS011;46248;58.364;25.582;2023-06-10T11:49:33;1.63;;;1.00;;
59766;SDS011;46248;58.364;25.582;2023-06-10T11:52:56;1.77;;;1.00;;
59766;SDS011;46248;58.364;25.582;2023-06-10T11:56:21;1.63;;;0.80;;
59766;SDS011;46248;58.364;25.582;2023-06-10T11:59:44;1.60;;;0.85;;
59766;SDS011;46248;58.364;25.582;2023-06-10T12:03:07;0.70;;;0.70;;
59766;SDS011;46248;58.364;25.582;2023-06-10T12:06:43;2.35;;;0.80;;
59766;SDS011;46248;58.364;25.582;2023-06-10T12:10:07;1.98;;;1.10;;
59766;SDS011;46248;58.364;25.582;2023-06-10T12:13:48;1.75;;;0.70;;
59766;SDS011;46248;58.364;25.582;2023-06-10T12:17:12;2.20;;;0.63;;
59766;SDS011;46248;58.364;25.582;2023-06-10T12:20:35;1.42;;;0.80;;
59766;SDS011;46248;58.364;25.582;2023-06-10T12:24:02;0.35;;;0.35;;
59766;SDS011;46248;58.364;25.582;2023-06-10T12:30:52;1.48;;;0.70;;
59766;SDS011;46248;58.364;25.582;2023-06-10T12:34:29;0.68;;;0.65;;
59766;SDS011;46248;58.364;25.582;2023-06-10T12:37:57;1.30;;;0.50;;
59766;SDS011;46248;58.364;25.582;2023-06-10T12:41:22;0.88;;;0.52;;
59766;SDS011;46248;58.364;25.582;2023-06-10T12:44:45;1.58;;;0.50;;
59766;SDS011;46248;58.364;25.582;2023-06-10T12:48:10;1.50;;;0.98;;
59766;SDS011;46248;58.364;25.582;2023-06-10T12:51:34;3.60;;;1.40;;
59766;SDS011;46248;58.364;25.582;2023-06-10T12:54:57;2.42;;;0.95;;
59766;SDS011;46248;58.364;25.582;2023-06-10T12:58:21;1.27;;;0.50;;
59766;SDS011;46248;58.364;25.582;2023-06-10T13:01:49;1.23;;;0.60;;
59766;SDS011;46248;58.364;25.582;2023-06-10T13:05:14;1.73;;;0.50;;
59766;SDS011;46248;58.364;25.582;2023-06-10T13:08:38;0.73;;;0.70;;
59766;SDS011;46248;58.364;25.582;2023-06-10T13:12:00;0.40;;;0.40;;
59766;SDS011;46248;58.364;25.582;2023-06-10T13:15:23;1.40;;;0.85;;
59766;SDS011;46248;58.364;25.582;2023-06-10T13:18:47;3.10;;;0.77;;
59766;SDS011;46248;58.364;25.582;2023-06-10T13:22:11;2.00;;;0.90;;
59766;SDS011;46248;58.364;25.582;2023-06-10T13:25:34;2.05;;;0.73;;
59766;SDS011;46248;58.364;25.582;2023-06-10T13:28:57;1.48;;;0.65;;
59766;SDS011;46248;58.364;25.582;2023-06-10T13:32:19;0.88;;;0.70;;
59766;SDS011;46248;58.364;25.582;2023-06-10T13:35:42;4.13;;;0.63;;
59766;SDS011;46248;58.364;25.582;2023-06-10T13:39:07;1.33;;;0.40;;
59766;SDS011;46248;58.364;25.582;2023-06-10T13:42:29;1.23;;;0.45;;
59766;SDS011;46248;58.364;25.582;2023-06-10T13:45:52;0.95;;;0.70;;
59766;SDS011;46248;58.364;25.582;2023-06-10T13:49:15;1.15;;;0.63;;
59766;SDS011;46248;58.364;25.582;2023-06-10T13:52:38;1.23;;;0.60;;
59766;SDS011;46248;58.364;25.582;2023-06-10T13:56:02;1.83;;;0.68;;
59766;SDS011;46248;58.364;25.582;2023-06-10T13:59:26;0.50;;;0.50;;
59766;SDS011;46248;58.364;25.582;2023-06-10T14:02:49;1.35;;;1.20;;
59766;SDS011;46248;58.364;25.582;2023-06-10T14:06:13;1.50;;;0.90;;
59766;SDS011;46248;58.364;25.582;2023-06-10T14:09:38;2.58;;;0.80;;
59766;SDS011;46248;58.364;25.582;2023-06-10T14:13:03;0.55;;;0.55;;
59766;SDS011;46248;58.364;25.582;2023-06-10T14:16:26;2.33;;;0.52;;
59766;SDS011;46248;58.364;25.582;2023-06-10T14:19:49;0.90;;;0.47;;
59766;SDS011;46248;58.364;25.582;2023-06-10T14:23:12;1.10;;;0.60;;
59766;SDS011;46248;58.364;25.582;2023-06-10T14:26:35;1.15;;;0.52;;
59766;SDS011;46248;58.364;25.582;2023-06-10T14:29:59;0.82;;;0.40;;
59766;SDS011;46248;58.364;25.582;2023-06-10T14:33:23;1.48;;;0.70;;
59766;SDS011;46248;58.364;25.582;2023-06-10T14:36:46;1.73;;;0.95;;
59766;SDS011;46248;58.364;25.582;2023-06-10T14:40:08;0.73;;;0.60;;
59766;SDS011;46248;58.364;25.582;2023-06-10T14:43:32;1.20;;;0.70;;
59766;SDS011;46248;58.364;25.582;2023-06-10T14:46:56;2.75;;;0.70;;
59766;SDS011;46248;58.364;25.582;2023-06-10T14:50:18;0.73;;;0.50;;
59766;SDS011;46248;58.364;25.582;2023-06-10T14:53:41;0.60;;;0.52;;
59766;SDS011;46248;58.364;25.582;2023-06-10T14:57:04;1.70;;;0.82;;
59766;SDS011;46248;58.364;25.582;2023-06-10T15:00:28;1.42;;;0.47;;
59766;SDS011;46248;58.364;25.582;2023-06-10T15:03:52;1.20;;;0.63;;
59766;SDS011;46248;58.364;25.582;2023-06-10T15:07:15;0.60;;;0.60;;
59766;SDS011;46248;58.364;25.582;2023-06-10T15:10:38;4.82;;;2.78;;
59766;SDS011;46248;58.364;25.582;2023-06-10T15:14:01;0.93;;;0.77;;
59766;SDS011;46248;58.364;25.582;2023-06-10T15:17:23;0.82;;;0.70;;
59766;SDS011;46248;58.364;25.582;2023-06-10T15:20:48;0.68;;;0.60;;
59766;SDS011;46248;58.364;25.582;2023-06-10T15:24:11;1.45;;;0.50;;
59766;SDS011;46248;58.364;25.582;2023-06-10T15:27:34;0.90;;;0.65;;
59766;SDS011;46248;58.364;25.582;2023-06-10T15:30:56;1.13;;;0.95;;
59766;SDS011;46248;58.364;25.582;2023-06-10T15:34:19;0.75;;;0.75;;
59766;SDS011;46248;58.364;25.582;2023-06-10T15:37:44;0.60;;;0.60;;
59766;SDS011;46248;58.364;25.582;2023-06-10T15:41:07;1.85;;;0.60;;
59766;SDS011;46248;58.364;25.582;2023-06-10T15:44:30;1.48;;;0.70;;
59766;SDS011;46248;58.364;25.582;2023-06-10T15:47:53;1.42;;;0.60;;
59766;SDS011;46248;58.364;25.582;2023-06-10T15:51:15;1.95;;;1.13;;
59766;SDS011;46248;58.364;25.582;2023-06-10T15:54:39;1.50;;;0.95;;
59766;SDS011;46248;58.364;25.582;2023-06-10T15:58:02;1.80;;;0.60;;
59766;SDS011;46248;58.364;25.582;2023-06-10T16:01:26;0.63;;;0.50;;
59766;SDS011;46248;58.364;25.582;2023-06-10T16:04:48;0.52;;;0.32;;
59766;SDS011;46248;58.364;25.582;2023-06-10T16:08:11;2.10;;;0.68;;
59766;SDS011;46248;58.364;25.582;2023-06-10T16:11:36;1.17;;;0.50;;
59766;SDS011;46248;58.364;25.582;2023-06-10T16:15:00;0.73;;;0.60;;
59766;SDS011;46248;58.364;25.582;2023-06-10T16:18:24;1.55;;;0.55;;
59766;SDS011;46248;58.364;25.582;2023-06-10T16:21:47;0.68;;;0.57;;
59766;SDS011;46248;58.364;25.582;2023-06-10T16:25:09;0.95;;;0.52;;
59766;SDS011;46248;58.364;25.582;2023-06-10T16:28:33;1.73;;;1.30;;
59766;SDS011;46248;58.364;25.582;2023-06-10T16:31:56;0.98;;;0.98;;
59766;SDS011;46248;58.364;25.582;2023-06-10T16:35:23;1.63;;;0.50;;
59766;SDS011;46248;58.364;25.582;2023-06-10T16:38:46;1.48;;;0.60;;
59766;SDS011;46248;58.364;25.582;2023-06-10T16:42:09;0.70;;;0.50;;
59766;SDS011;46248;58.364;25.582;2023-06-10T16:45:33;1.55;;;0.45;;
59766;SDS011;46248;58.364;25.582;2023-06-10T16:48:56;1.63;;;0.70;;
59766;SDS011;46248;58.364;25.582;2023-06-10T16:52:19;2.33;;;0.80;;
59766;SDS011;46248;58.364;25.582;2023-06-10T16:55:42;1.40;;;0.70;;
59766;SDS011;46248;58.364;25.582;2023-06-10T16:59:05;1.02;;;0.60;;
59766;SDS011;46248;58.364;25.582;2023-06-10T17:02:30;2.72;;;0.70;;
59766;SDS011;46248;58.364;25.582;2023-06-10T17:05:53;2.45;;;0.77;;
59766;SDS011;46248;58.364;25.582;2023-06-10T17:09:16;2.67;;;0.50;;
59766;SDS011;46248;58.364;25.582;2023-06-10T17:12:40;3.58;;;0.70;;
59766;SDS011;46248;58.364;25.582;2023-06-10T17:16:03;0.82;;;0.82;;
59766;SDS011;46248;58.364;25.582;2023-06-10T17:19:29;1.63;;;0.90;;
59766;SDS011;46248;58.364;25.582;2023-06-10T17:22:52;0.77;;;0.77;;
59766;SDS011;46248;58.364;25.582;2023-06-10T17:26:15;1.58;;;0.77;;
59766;SDS011;46248;58.364;25.582;2023-06-10T17:29:38;0.73;;;0.63;;
59766;SDS011;46248;58.364;25.582;2023-06-10T17:33:01;1.92;;;0.68;;
59766;SDS011;46248;58.364;25.582;2023-06-10T17:36:26;1.52;;;0.70;;
59766;SDS011;46248;58.364;25.582;2023-06-10T17:39:49;3.67;;;0.90;;
59766;SDS011;46248;58.364;25.582;2023-06-10T17:43:12;1.45;;;1.00;;
59766;SDS011;46248;58.364;25.582;2023-06-10T17:46:35;1.55;;;0.95;;
59766;SDS011;46248;58.364;25.582;2023-06-10T17:49:58;1.52;;;1.40;;
59766;SDS011;46248;58.364;25.582;2023-06-10T17:53:22;1.23;;;0.98;;
59766;SDS011;46248;58.364;25.582;2023-06-10T17:56:44;2.25;;;0.93;;
59766;SDS011;46248;58.364;25.582;2023-06-10T18:00:08;2.00;;;1.27;;
59766;SDS011;46248;58.364;25.582;2023-06-10T18:03:31;1.25;;;1.13;;
59766;SDS011;46248;58.364;25.582;2023-06-10T18:06:56;2.05;;;1.05;;
59766;SDS011;46248;58.364;25.582;2023-06-10T18:10:20;1.90;;;1.00;;
59766;SDS011;46248;58.364;25.582;2023-06-10T18:13:43;2.53;;;1.00;;
59766;SDS011;46248;58.364;25.582;2023-06-10T18:17:06;0.60;;;0.60;;
59766;SDS011;46248;58.364;25.582;2023-06-10T18:20:29;1.65;;;1.10;;
59766;SDS011;46248;58.364;25.582;2023-06-10T18:23:52;1.15;;;1.05;;
59766;SDS011;46248;58.364;25.582;2023-06-10T18:27:16;1.05;;;0.85;;
59766;SDS011;46248;58.364;25.582;2023-06-10T18:30:39;1.10;;;1.00;;
59766;SDS011;46248;58.364;25.582;2023-06-10T18:34:02;1.08;;;0.85;;
59766;SDS011;46248;58.364;25.582;2023-06-10T18:37:25;1.92;;;0.90;;
59766;SDS011;46248;58.364;25.582;2023-06-10T18:40:48;2.60;;;0.88;;
59766;SDS011;46248;58.364;25.582;2023-06-10T18:44:14;0.95;;;0.70;;
59766;SDS011;46248;58.364;25.582;2023-06-10T18:47:36;0.50;;;0.50;;
59766;SDS011;46248;58.364;25.582;2023-06-10T18:51:16;1.55;;;0.95;;
59766;SDS011;46248;58.364;25.582;2023-06-10T18:54:39;0.50;;;0.50;;
59766;SDS011;46248;58.364;25.582;2023-06-10T18:58:02;1.95;;;0.82;;
59766;SDS011;46248;58.364;25.582;2023-06-10T19:01:27;2.28;;;0.70;;
59766;SDS011;46248;58.364;25.582;2023-06-10T19:04:50;2.47;;;1.17;;
59766;SDS011;46248;58.364;25.582;2023-06-10T19:08:13;2.60;;;1.20;;
59766;SDS011;46248;58.364;25.582;2023-06-10T19:11:36;2.58;;;1.60;;
59766;SDS011;46248;58.364;25.582;2023-06-10T19:14:59;4.63;;;2.13;;
59766;SDS011;46248;58.364;25.582;2023-06-10T19:18:24;4.20;;;2.40;;
59766;SDS011;46248;58.364;25.582;2023-06-10T19:21:47;5.88;;;3.13;;
59766;SDS011;46248;58.364;25.582;2023-06-10T19:25:09;7.35;;;3.53;;
59766;SDS011;46248;58.364;25.582;2023-06-10T19:28:33;6.95;;;4.13;;
59766;SDS011;46248;58.364;25.582;2023-06-10T19:31:56;7.03;;;3.47;;
59766;SDS011;46248;58.364;25.582;2023-06-10T19:35:20;5.25;;;3.17;;
59766;SDS011;46248;58.364;25.582;2023-06-10T19:38:43;4.82;;;2.40;;
59766;SDS011;46248;58.364;25.582;2023-06-10T19:42:06;6.35;;;2.78;;
59766;SDS011;46248;58.364;25.582;2023-06-10T19:45:32;5.78;;;2.75;;
59766;SDS011;46248;58.364;25.582;2023-06-10T19:48:55;3.28;;;1.90;;
59766;SDS011;46248;58.364;25.582;2023-06-10T19:52:20;6.65;;;2.40;;
59766;SDS011;46248;58.364;25.582;2023-06-10T19:55:43;5.72;;;2.80;;
59766;SDS011;46248;58.364;25.582;2023-06-10T19:59:06;2.45;;;1.92;;
59766;SDS011;46248;58.364;25.582;2023-06-10T20:02:29;4.22;;;2.15;;
59766;SDS011;46248;58.364;25.582;2023-06-10T20:05:52;3.13;;;1.73;;
59766;SDS011;46248;58.364;25.582;2023-06-10T20:09:17;5.03;;;2.35;;
59766;SDS011;46248;58.364;25.582;2023-06-10T20:12:40;2.78;;;1.80;;
59766;SDS011;46248;58.364;25.582;2023-06-10T20:16:03;3.58;;;2.05;;